sensor_id;sensor_type;location;lat;lon;timestamp;P1;durP1;ratioP1;P2;durP2;ratioP2
11422;SDS011;5768;51.476;7.210;2024-02-23T00:00:30;1.60;;;0.60;;
11422;SDS011;5768;51.476;7.210;2024-02-23T00:05:32;0.40;;;0.40;;
11422;SDS011;5768;51.476;7.210;2024-02-23T00:10:34;0.40;;;0.40;;
11422;SDS011;5768;51.476;7.210;2024-02-23T00:15:37;0.40;;;0.40;;
11422;SDS011;5768;51.476;7.210;2024-02-23T00:20:40;0.30;;;0.30;;
11422;SDS011;5768;51.476;7.210;2024-02-23T00:25:42;0.30;;;0.30;;
11422;SDS011;5768;51.476;7.210;2024-02-23T00:30:46;0.47;;;0.47;;
11422;SDS011;5768;51.476;7.210;2024-02-23T00:35:49;0.30;;;0.30;;
11422;SDS011;5768;51.476;7.210;2024-02-23T00:40:51;0.50;;;0.50;;
11422;SDS011;5768;51.476;7.210;2024-02-23T00:45:54;0.50;;;0.50;;
11422;SDS011;5768;51.476;7.210;2024-02-23T00:50:57;0.63;;;0.63;;
11422;SDS011;5768;51.476;7.210;2024-02-23T00:55:59;0.70;;;0.70;;
11422;SDS011;5768;51.476;7.210;2024-02-23T01:01:02;0.73;;;0.73;;
11422;SDS011;5768;51.476;7.210;2024-02-23T01:06:05;0.70;;;0.70;;
11422;SDS011;5768;51.476;7.210;2024-02-23T01:11:07;0.90;;;0.90;;
11422;SDS011;5768;51.476;7.210;2024-02-23T01:16:11;1.27;;;0.77;;
11422;SDS011;5768;51.476;7.210;2024-02-23T01:21:13;0.97;;;0.70;;
11422;SDS011;5768;51.476;7.210;2024-02-23T01:26:15;1.03;;;0.60;;
11422;SDS011;5768;51.476;7.210;2024-02-23T01:31:19;0.70;;;0.70;;
11422;SDS011;5768;51.476;7.210;2024-02-23T01:36:21;0.70;;;0.70;;
11422;SDS011;5768;51.476;7.210;2024-02-23T01:41:23;0.97;;;0.70;;
11422;SDS011;5768;51.476;7.210;2024-02-23T01:46:28;2.17;;;0.60;;
11422;SDS011;5768;51.476;7.210;2024-02-23T01:51:32;0.80;;;0.80;;
11422;SDS011;5768;51.476;7.210;2024-02-23T01:56:34;0.50;;;0.50;;
11422;SDS011;5768;51.476;7.210;2024-02-23T02:01:41;1.60;;;0.90;;
11422;SDS011;5768;51.476;7.210;2024-02-23T02:06:45;1.17;;;1.07;;
11422;SDS011;5768;51.476;7.210;2024-02-23T02:11:49;0.80;;;0.80;;
11422;SDS011;5768;51.476;7.210;2024-02-23T02:16:53;2.03;;;0.80;;
11422;SDS011;5768;51.476;7.210;2024-02-23T02:21:55;4.07;;;1.13;;
11422;SDS011;5768;51.476;7.210;2024-02-23T02:26:58;2.17;;;1.00;;
11422;SDS011;5768;51.476;7.210;2024-02-23T02:32:02;3.77;;;1.00;;
11422;SDS011;5768;51.476;7.210;2024-02-23T02:37:04;1.40;;;0.60;;
11422;SDS011;5768;51.476;7.210;2024-02-23T02:42:07;1.83;;;0.87;;
11422;SDS011;5768;51.476;7.210;2024-02-23T02:47:11;0.67;;;0.67;;
11422;SDS011;5768;51.476;7.210;2024-02-23T02:52:14;1.63;;;1.00;;
11422;SDS011;5768;51.476;7.210;2024-02-23T02:57:16;2.17;;;0.80;;
11422;SDS011;5768;51.476;7.210;2024-02-23T03:02:19;1.77;;;1.00;;
11422;SDS011;5768;51.476;7.210;2024-02-23T03:07:22;1.40;;;0.90;;
11422;SDS011;5768;51.476;7.210;2024-02-23T03:12:24;1.97;;;0.90;;
11422;SDS011;5768;51.476;7.210;2024-02-23T03:17:28;3.47;;;1.30;;
11422;SDS011;5768;51.476;7.210;2024-02-23T03:22:30;0.80;;;0.80;;
11422;SDS011;5768;51.476;7.210;2024-02-23T03:27:41;0.57;;;0.57;;
11422;SDS011;5768;51.476;7.210;2024-02-23T03:32:45;1.60;;;0.80;;
11422;SDS011;5768;51.476;7.210;2024-02-23T03:37:47;1.40;;;0.70;;
11422;SDS011;5768;51.476;7.210;2024-02-23T03:42:49;1.80;;;1.00;;
11422;SDS011;5768;51.476;7.210;2024-02-23T03:47:53;2.30;;;0.73;;
11422;SDS011;5768;51.476;7.210;2024-02-23T03:52:55;1.93;;;1.00;;
11422;SDS011;5768;51.476;7.210;2024-02-23T03:57:57;3.47;;;1.00;;
11422;SDS011;5768;51.476;7.210;2024-02-23T04:03:01;1.67;;;0.70;;
11422;SDS011;5768;51.476;7.210;2024-02-23T04:08:04;2.47;;;1.10;;
11422;SDS011;5768;51.476;7.210;2024-02-23T04:13:07;0.83;;;0.60;;
11422;SDS011;5768;51.476;7.210;2024-02-23T04:18:12;1.90;;;0.73;;
11422;SDS011;5768;51.476;7.210;2024-02-23T04:23:14;2.50;;;1.20;;
11422;SDS011;5768;51.476;7.210;2024-02-23T04:28:16;2.13;;;0.70;;
11422;SDS011;5768;51.476;7.210;2024-02-23T04:33:20;1.90;;;0.80;;
11422;SDS011;5768;51.476;7.210;2024-02-23T04:38:22;2.97;;;1.00;;
11422;SDS011;5768;51.476;7.210;2024-02-23T04:43:24;1.03;;;0.77;;
11422;SDS011;5768;51.476;7.210;2024-02-23T04:48:28;1.80;;;1.10;;
11422;SDS011;5768;51.476;7.210;2024-02-23T04:53:31;2.33;;;0.80;;
11422;SDS011;5768;51.476;7.210;2024-02-23T04:58:37;2.90;;;0.77;;
11422;SDS011;5768;51.476;7.210;2024-02-23T05:03:42;2.90;;;0.90;;
11422;SDS011;5768;51.476;7.210;2024-02-23T05:08:45;2.50;;;1.00;;
11422;SDS011;5768;51.476;7.210;2024-02-23T05:13:52;1.03;;;0.37;;
11422;SDS011;5768;51.476;7.210;2024-02-23T05:18:56;4.03;;;0.93;;
11422;SDS011;5768;51.476;7.210;2024-02-23T05:23:58;1.67;;;0.87;;
11422;SDS011;5768;51.476;7.210;2024-02-23T05:29:01;3.50;;;1.20;;
11422;SDS011;5768;51.476;7.210;2024-02-23T05:34:05;2.53;;;0.67;;
11422;SDS011;5768;51.476;7.210;2024-02-23T05:39:07;2.90;;;1.07;;
11422;SDS011;5768;51.476;7.210;2024-02-23T05:44:09;2.93;;;1.20;;
11422;SDS011;5768;51.476;7.210;2024-02-23T05:49:14;2.67;;;1.00;;
11422;SDS011;5768;51.476;7.210;2024-02-23T05:54:19;2.33;;;0.80;;
11422;SDS011;5768;51.476;7.210;2024-02-23T05:59:22;2.67;;;0.93;;
11422;SDS011;5768;51.476;7.210;2024-02-23T06:04:26;2.30;;;1.03;;
11422;SDS011;5768;51.476;7.210;2024-02-23T06:09:32;3.60;;;1.03;;
11422;SDS011;5768;51.476;7.210;2024-02-23T06:14:34;2.50;;;0.80;;
11422;SDS011;5768;51.476;7.210;2024-02-23T06:19:41;5.60;;;1.20;;
11422;SDS011;5768;51.476;7.210;2024-02-23T06:24:43;3.57;;;1.33;;
11422;SDS011;5768;51.476;7.210;2024-02-23T06:29:46;3.40;;;1.63;;
11422;SDS011;5768;51.476;7.210;2024-02-23T06:34:50;2.80;;;0.80;;
11422;SDS011;5768;51.476;7.210;2024-02-23T06:39:55;3.33;;;1.20;;
11422;SDS011;5768;51.476;7.210;2024-02-23T06:44:57;4.67;;;1.07;;
11422;SDS011;5768;51.476;7.210;2024-02-23T06:50:01;2.73;;;1.10;;
11422;SDS011;5768;51.476;7.210;2024-02-23T06:55:06;2.77;;;1.20;;
11422;SDS011;5768;51.476;7.210;2024-02-23T07:00:12;4.47;;;1.30;;
11422;SDS011;5768;51.476;7.210;2024-02-23T07:05:17;3.57;;;1.10;;
11422;SDS011;5768;51.476;7.210;2024-02-23T07:10:25;2.30;;;1.27;;
11422;SDS011;5768;51.476;7.210;2024-02-23T07:15:36;2.87;;;1.17;;
11422;SDS011;5768;51.476;7.210;2024-02-23T07:20:56;5.87;;;1.20;;
11422;SDS011;5768;51.476;7.210;2024-02-23T07:26:01;3.70;;;1.13;;
11422;SDS011;5768;51.476;7.210;2024-02-23T07:31:03;2.83;;;1.10;;
11422;SDS011;5768;51.476;7.210;2024-02-23T07:36:14;1.77;;;1.10;;
11422;SDS011;5768;51.476;7.210;2024-02-23T07:41:19;2.30;;;1.27;;
11422;SDS011;5768;51.476;7.210;2024-02-23T07:46:24;2.77;;;1.40;;
11422;SDS011;5768;51.476;7.210;2024-02-23T07:51:28;2.83;;;1.13;;
11422;SDS011;5768;51.476;7.210;2024-02-23T07:56:33;3.37;;;1.27;;
11422;SDS011;5768;51.476;7.210;2024-02-23T08:01:35;3.00;;;1.00;;
11422;SDS011;5768;51.476;7.210;2024-02-23T08:06:39;2.17;;;1.10;;
11422;SDS011;5768;51.476;7.210;2024-02-23T08:11:41;2.10;;;0.97;;
11422;SDS011;5768;51.476;7.210;2024-02-23T08:16:44;1.03;;;0.67;;
11422;SDS011;5768;51.476;7.210;2024-02-23T08:21:51;2.23;;;0.93;;
11422;SDS011;5768;51.476;7.210;2024-02-23T08:26:57;1.80;;;1.17;;
11422;SDS011;5768;51.476;7.210;2024-02-23T08:32:03;2.23;;;1.03;;
11422;SDS011;5768;51.476;7.210;2024-02-23T08:37:09;2.27;;;1.00;;
11422;SDS011;5768;51.476;7.210;2024-02-23T08:42:12;1.87;;;1.07;;
11422;SDS011;5768;51.476;7.210;2024-02-23T08:47:15;2.27;;;0.90;;
11422;SDS011;5768;51.476;7.210;2024-02-23T08:52:21;2.20;;;0.80;;
11422;SDS011;5768;51.476;7.210;2024-02-23T08:57:36;2.33;;;1.00;;
11422;SDS011;5768;51.476;7.210;2024-02-23T09:02:38;2.23;;;1.33;;
11422;SDS011;5768;51.476;7.210;2024-02-23T09:07:44;2.47;;;1.00;;
11422;SDS011;5768;51.476;7.210;2024-02-23T09:12:46;2.27;;;1.13;;
11422;SDS011;5768;51.476;7.210;2024-02-23T09:17:49;3.03;;;1.30;;
11422;SDS011;5768;51.476;7.210;2024-02-23T09:23:00;2.70;;;1.20;;
11422;SDS011;5768;51.476;7.210;2024-02-23T09:28:19;5.00;;;1.40;;
11422;SDS011;5768;51.476;7.210;2024-02-23T09:33:21;1.37;;;0.87;;
11422;SDS011;5768;51.476;7.210;2024-02-23T09:38:25;3.07;;;1.00;;
11422;SDS011;5768;51.476;7.210;2024-02-23T09:43:31;3.37;;;1.03;;
11422;SDS011;5768;51.476;7.210;2024-02-23T09:48:36;1.87;;;1.07;;
11422;SDS011;5768;51.476;7.210;2024-02-23T09:53:41;0.77;;;0.77;;
11422;SDS011;5768;51.476;7.210;2024-02-23T09:58:44;1.07;;;0.80;;
11422;SDS011;5768;51.476;7.210;2024-02-23T10:03:50;2.17;;;0.90;;
11422;SDS011;5768;51.476;7.210;2024-02-23T10:09:06;1.63;;;0.90;;
11422;SDS011;5768;51.476;7.210;2024-02-23T10:14:13;1.97;;;0.80;;
11422;SDS011;5768;51.476;7.210;2024-02-23T10:19:17;1.93;;;1.07;;
11422;SDS011;5768;51.476;7.210;2024-02-23T10:24:25;3.57;;;1.23;;
11422;SDS011;5768;51.476;7.210;2024-02-23T10:29:28;2.03;;;1.13;;
11422;SDS011;5768;51.476;7.210;2024-02-23T10:34:31;2.60;;;1.13;;
11422;SDS011;5768;51.476;7.210;2024-02-23T10:39:39;1.92;;;0.98;;
11422;SDS011;5768;51.476;7.210;2024-02-23T10:44:47;2.17;;;1.10;;
11422;SDS011;5768;51.476;7.210;2024-02-23T10:49:50;2.83;;;1.20;;
11422;SDS011;5768;51.476;7.210;2024-02-23T10:54:55;2.45;;;1.00;;
11422;SDS011;5768;51.476;7.210;2024-02-23T11:00:01;1.67;;;0.80;;
11422;SDS011;5768;51.476;7.210;2024-02-23T11:05:10;2.58;;;0.75;;
11422;SDS011;5768;51.476;7.210;2024-02-23T11:10:18;2.92;;;0.85;;
11422;SDS011;5768;51.476;7.210;2024-02-23T11:15:28;1.95;;;0.82;;
11422;SDS011;5768;51.476;7.210;2024-02-23T11:20:34;1.88;;;0.88;;
11422;SDS011;5768;51.476;7.210;2024-02-23T11:25:43;2.05;;;0.70;;
11422;SDS011;5768;51.476;7.210;2024-02-23T11:31:19;2.07;;;1.10;;
11422;SDS011;5768;51.476;7.210;2024-02-23T11:36:27;0.73;;;0.50;;
11422;SDS011;5768;51.476;7.210;2024-02-23T11:41:45;1.83;;;0.75;;
11422;SDS011;5768;51.476;7.210;2024-02-23T11:46:50;0.80;;;0.60;;
11422;SDS011;5768;51.476;7.210;2024-02-23T11:51:53;0.82;;;0.65;;
11422;SDS011;5768;51.476;7.210;2024-02-23T11:56:58;1.93;;;0.60;;
11422;SDS011;5768;51.476;7.210;2024-02-23T12:02:00;1.13;;;0.73;;
11422;SDS011;5768;51.476;7.210;2024-02-23T12:07:37;2.53;;;0.87;;
11422;SDS011;5768;51.476;7.210;2024-02-23T12:12:43;1.70;;;0.73;;
11422;SDS011;5768;51.476;7.210;2024-02-23T12:17:47;0.82;;;0.60;;
11422;SDS011;5768;51.476;7.210;2024-02-23T12:22:50;2.47;;;1.00;;
11422;SDS011;5768;51.476;7.210;2024-02-23T12:27:58;0.90;;;0.67;;
11422;SDS011;5768;51.476;7.210;2024-02-23T12:33:07;1.35;;;0.60;;
11422;SDS011;5768;51.476;7.210;2024-02-23T12:38:10;2.72;;;1.02;;
11422;SDS011;5768;51.476;7.210;2024-02-23T12:43:14;2.13;;;1.30;;
11422;SDS011;5768;51.476;7.210;2024-02-23T12:48:16;1.43;;;0.90;;
11422;SDS011;5768;51.476;7.210;2024-02-23T12:53:30;2.13;;;0.80;;
11422;SDS011;5768;51.476;7.210;2024-02-23T12:58:38;3.00;;;1.00;;
11422;SDS011;5768;51.476;7.210;2024-02-23T13:03:44;1.85;;;0.93;;
11422;SDS011;5768;51.476;7.210;2024-02-23T13:08:48;3.10;;;1.73;;
11422;SDS011;5768;51.476;7.210;2024-02-23T13:13:51;1.98;;;1.17;;
11422;SDS011;5768;51.476;7.210;2024-02-23T13:18:56;3.97;;;1.10;;
11422;SDS011;5768;51.476;7.210;2024-02-23T13:23:58;1.92;;;0.80;;
11422;SDS011;5768;51.476;7.210;2024-02-23T13:29:04;1.55;;;0.98;;
11422;SDS011;5768;51.476;7.210;2024-02-23T13:34:07;3.10;;;1.10;;
11422;SDS011;5768;51.476;7.210;2024-02-23T13:39:10;2.17;;;1.10;;
11422;SDS011;5768;51.476;7.210;2024-02-23T13:44:17;1.25;;;0.77;;
11422;SDS011;5768;51.476;7.210;2024-02-23T13:49:20;2.63;;;1.17;;
11422;SDS011;5768;51.476;7.210;2024-02-23T13:54:22;3.22;;;0.95;;
11422;SDS011;5768;51.476;7.210;2024-02-23T13:59:27;3.08;;;1.20;;
11422;SDS011;5768;51.476;7.210;2024-02-23T14:04:29;2.25;;;0.70;;
11422;SDS011;5768;51.476;7.210;2024-02-23T14:09:32;2.13;;;0.90;;
11422;SDS011;5768;51.476;7.210;2024-02-23T14:14:35;2.47;;;0.82;;
11422;SDS011;5768;51.476;7.210;2024-02-23T14:19:38;1.85;;;1.00;;
11422;SDS011;5768;51.476;7.210;2024-02-23T14:24:41;3.60;;;0.93;;
11422;SDS011;5768;51.476;7.210;2024-02-23T14:29:45;2.17;;;1.10;;
11422;SDS011;5768;51.476;7.210;2024-02-23T14:34:48;1.88;;;1.00;;
11422;SDS011;5768;51.476;7.210;2024-02-23T14:39:57;2.33;;;1.10;;
11422;SDS011;5768;51.476;7.210;2024-02-23T14:45:01;1.73;;;1.00;;
11422;SDS011;5768;51.476;7.210;2024-02-23T14:50:05;1.90;;;0.90;;
11422;SDS011;5768;51.476;7.210;2024-02-23T14:55:09;4.15;;;1.10;;
11422;SDS011;5768;51.476;7.210;2024-02-23T15:00:14;2.65;;;1.20;;
11422;SDS011;5768;51.476;7.210;2024-02-23T15:05:17;2.47;;;1.10;;
11422;SDS011;5768;51.476;7.210;2024-02-23T15:10:20;3.17;;;1.23;;
11422;SDS011;5768;51.476;7.210;2024-02-23T15:15:23;1.52;;;0.70;;
11422;SDS011;5768;51.476;7.210;2024-02-23T15:20:26;2.08;;;0.90;;
11422;SDS011;5768;51.476;7.210;2024-02-23T15:25:28;3.30;;;1.45;;
11422;SDS011;5768;51.476;7.210;2024-02-23T15:30:32;2.88;;;1.02;;
11422;SDS011;5768;51.476;7.210;2024-02-23T15:35:34;3.38;;;1.25;;
11422;SDS011;5768;51.476;7.210;2024-02-23T15:40:36;2.17;;;1.10;;
11422;SDS011;5768;51.476;7.210;2024-02-23T15:45:40;3.28;;;1.33;;
11422;SDS011;5768;51.476;7.210;2024-02-23T15:50:43;2.53;;;1.10;;
11422;SDS011;5768;51.476;7.210;2024-02-23T15:55:45;3.60;;;1.00;;
11422;SDS011;5768;51.476;7.210;2024-02-23T16:00:49;3.63;;;2.05;;
11422;SDS011;5768;51.476;7.210;2024-02-23T16:05:53;3.20;;;2.20;;
11422;SDS011;5768;51.476;7.210;2024-02-23T16:10:56;4.18;;;1.50;;
11422;SDS011;5768;51.476;7.210;2024-02-23T16:16:00;3.08;;;1.77;;
11422;SDS011;5768;51.476;7.210;2024-02-23T16:21:02;2.50;;;1.25;;
11422;SDS011;5768;51.476;7.210;2024-02-23T16:26:06;2.00;;;1.10;;
11422;SDS011;5768;51.476;7.210;2024-02-23T16:31:09;2.50;;;1.90;;
11422;SDS011;5768;51.476;7.210;2024-02-23T16:36:12;1.90;;;1.27;;
11422;SDS011;5768;51.476;7.210;2024-02-23T16:41:15;3.05;;;1.70;;
11422;SDS011;5768;51.476;7.210;2024-02-23T16:46:18;4.07;;;1.40;;
11422;SDS011;5768;51.476;7.210;2024-02-23T16:51:24;2.35;;;1.17;;
11422;SDS011;5768;51.476;7.210;2024-02-23T16:56:28;1.77;;;1.10;;
11422;SDS011;5768;51.476;7.210;2024-02-23T17:01:32;1.95;;;1.10;;
11422;SDS011;5768;51.476;7.210;2024-02-23T17:06:35;2.45;;;0.90;;
11422;SDS011;5768;51.476;7.210;2024-02-23T17:11:38;1.23;;;0.82;;
11422;SDS011;5768;51.476;7.210;2024-02-23T17:16:42;1.10;;;0.73;;
11422;SDS011;5768;51.476;7.210;2024-02-23T17:21:45;2.00;;;0.93;;
11422;SDS011;5768;51.476;7.210;2024-02-23T17:26:48;2.27;;;1.30;;
11422;SDS011;5768;51.476;7.210;2024-02-23T17:31:52;1.80;;;1.10;;
11422;SDS011;5768;51.476;7.210;2024-02-23T17:36:55;2.40;;;1.80;;
11422;SDS011;5768;51.476;7.210;2024-02-23T17:41:57;3.03;;;1.37;;
11422;SDS011;5768;51.476;7.210;2024-02-23T17:47:01;2.03;;;1.60;;
11422;SDS011;5768;51.476;7.210;2024-02-23T17:52:08;3.17;;;1.90;;
11422;SDS011;5768;51.476;7.210;2024-02-23T17:57:11;3.53;;;1.73;;
11422;SDS011;5768;51.476;7.210;2024-02-23T18:02:15;3.00;;;1.60;;
11422;SDS011;5768;51.476;7.210;2024-02-23T18:07:17;2.67;;;1.57;;
11422;SDS011;5768;51.476;7.210;2024-02-23T18:12:20;2.67;;;1.73;;
11422;SDS011;5768;51.476;7.210;2024-02-23T18:17:27;3.57;;;1.70;;
11422;SDS011;5768;51.476;7.210;2024-02-23T18:22:30;3.35;;;1.58;;
11422;SDS011;5768;51.476;7.210;2024-02-23T18:27:32;2.07;;;1.37;;
11422;SDS011;5768;51.476;7.210;2024-02-23T18:32:36;2.10;;;1.43;;
11422;SDS011;5768;51.476;7.210;2024-02-23T18:37:39;6.10;;;3.87;;
11422;SDS011;5768;51.476;7.210;2024-02-23T18:42:43;5.03;;;3.43;;
11422;SDS011;5768;51.476;7.210;2024-02-23T18:47:48;4.07;;;1.93;;
11422;SDS011;5768;51.476;7.210;2024-02-23T18:52:50;2.33;;;1.27;;
11422;SDS011;5768;51.476;7.210;2024-02-23T18:57:53;2.37;;;1.40;;
11422;SDS011;5768;51.476;7.210;2024-02-23T19:03:00;3.37;;;2.20;;
11422;SDS011;5768;51.476;7.210;2024-02-23T19:08:07;3.37;;;1.40;;
11422;SDS011;5768;51.476;7.210;2024-02-23T19:13:15;3.33;;;1.37;;
11422;SDS011;5768;51.476;7.210;2024-02-23T19:18:27;2.97;;;1.37;;
11422;SDS011;5768;51.476;7.210;2024-02-23T19:23:30;3.67;;;1.40;;
11422;SDS011;5768;51.476;7.210;2024-02-23T19:28:34;2.27;;;1.07;;
11422;SDS011;5768;51.476;7.210;2024-02-23T19:33:41;3.33;;;1.80;;
11422;SDS011;5768;51.476;7.210;2024-02-23T19:38:43;4.60;;;2.07;;
11422;SDS011;5768;51.476;7.210;2024-02-23T19:43:51;2.77;;;1.60;;
11422;SDS011;5768;51.476;7.210;2024-02-23T19:48:55;6.57;;;3.60;;
11422;SDS011;5768;51.476;7.210;2024-02-23T19:53:59;5.90;;;2.93;;
11422;SDS011;5768;51.476;7.210;2024-02-23T19:59:02;6.57;;;3.67;;
11422;SDS011;5768;51.476;7.210;2024-02-23T20:04:06;3.43;;;1.67;;
11422;SDS011;5768;51.476;7.210;2024-02-23T20:09:08;2.77;;;1.67;;
11422;SDS011;5768;51.476;7.210;2024-02-23T20:14:19;3.00;;;1.83;;
11422;SDS011;5768;51.476;7.210;2024-02-23T20:19:26;2.33;;;1.33;;
11422;SDS011;5768;51.476;7.210;2024-02-23T20:24:30;1.60;;;1.20;;
11422;SDS011;5768;51.476;7.210;2024-02-23T20:29:33;3.67;;;2.63;;
11422;SDS011;5768;51.476;7.210;2024-02-23T20:34:36;1.10;;;0.90;;
11422;SDS011;5768;51.476;7.210;2024-02-23T20:39:39;1.67;;;1.30;;
11422;SDS011;5768;51.476;7.210;2024-02-23T20:44:42;2.30;;;0.90;;
11422;SDS011;5768;51.476;7.210;2024-02-23T20:49:47;4.13;;;1.10;;
11422;SDS011;5768;51.476;7.210;2024-02-23T20:54:53;2.43;;;1.00;;
11422;SDS011;5768;51.476;7.210;2024-02-23T20:59:56;2.53;;;0.93;;
11422;SDS011;5768;51.476;7.210;2024-02-23T21:05:00;1.27;;;1.10;;
11422;SDS011;5768;51.476;7.210;2024-02-23T21:10:02;1.77;;;1.03;;
11422;SDS011;5768;51.476;7.210;2024-02-23T21:15:08;2.57;;;1.40;;
11422;SDS011;5768;51.476;7.210;2024-02-23T21:20:12;1.83;;;1.20;;
11422;SDS011;5768;51.476;7.210;2024-02-23T21:25:16;3.60;;;1.57;;
11422;SDS011;5768;51.476;7.210;2024-02-23T21:30:18;2.27;;;1.50;;
11422;SDS011;5768;51.476;7.210;2024-02-23T21:35:22;3.30;;;1.43;;
11422;SDS011;5768;51.476;7.210;2024-02-23T21:40:24;2.83;;;1.37;;
11422;SDS011;5768;51.476;7.210;2024-02-23T21:45:27;2.80;;;1.30;;
11422;SDS011;5768;51.476;7.210;2024-02-23T21:50:30;3.67;;;1.43;;
11422;SDS011;5768;51.476;7.210;2024-02-23T21:55:32;3.80;;;1.40;;
11422;SDS011;5768;51.476;7.210;2024-02-23T22:00:35;2.17;;;1.27;;
11422;SDS011;5768;51.476;7.210;2024-02-23T22:05:38;3.50;;;1.30;;
11422;SDS011;5768;51.476;7.210;2024-02-23T22:10:40;1.97;;;1.40;;
11422;SDS011;5768;51.476;7.210;2024-02-23T22:15:43;2.60;;;1.30;;
11422;SDS011;5768;51.476;7.210;2024-02-23T22:20:46;1.40;;;1.30;;
11422;SDS011;5768;51.476;7.210;2024-02-23T22:25:48;3.10;;;1.47;;
11422;SDS011;5768;51.476;7.210;2024-02-23T22:30:50;2.50;;;1.10;;
11422;SDS011;5768;51.476;7.210;2024-02-23T22:36:02;1.93;;;1.13;;
11422;SDS011;5768;51.476;7.210;2024-02-23T22:41:06;1.70;;;1.10;;
11422;SDS011;5768;51.476;7.210;2024-02-23T22:46:08;2.57;;;1.03;;
11422;SDS011;5768;51.476;7.210;2024-02-23T22:51:11;1.43;;;1.00;;
11422;SDS011;5768;51.476;7.210;2024-02-23T22:56:14;1.57;;;1.20;;
11422;SDS011;5768;51.476;7.210;2024-02-23T23:01:16;2.07;;;1.03;;
11422;SDS011;5768;51.476;7.210;2024-02-23T23:06:20;1.80;;;1.30;;
11422;SDS011;5768;51.476;7.210;2024-02-23T23:11:22;1.20;;;0.90;;
11422;SDS011;5768;51.476;7.210;2024-02-23T23:16:25;1.43;;;1.00;;
11422;SDS011;5768;51.476;7.210;2024-02-23T23:21:29;1.37;;;1.10;;
11422;SDS011;5768;51.476;7.210;2024-02-23T23:26:32;1.93;;;1.30;;
11422;SDS011;5768;51.476;7.210;2024-02-23T23:31:34;2.83;;;1.30;;
11422;SDS011;5768;51.476;7.210;2024-02-23T23:36:39;1.83;;;1.10;;
11422;SDS011;5768;51.476;7.210;2024-02-23T23:41:41;2.30;;;1.30;;
11422;SDS011;5768;51.476;7.210;2024-02-23T23:46:44;1.83;;;1.20;;
11422;SDS011;5768;51.476;7.210;2024-02-23T23:51:48;2.00;;;1.30;;
11422;SDS011;5768;51.476;7.210;2024-02-23T23:56:53;0.90;;;0.90;;
